sim
Sign-in with your pilot id or email,
or register
Callsign
Passwort

Schedule Details

Flight Number: RYR1584 (2)
Departure: Leeds Bradford Airport (EGNM) at 07:05
Arrival: Fuerteventura Airport (GCFV) at 11:30
Route: Ryanair Passenger Schedule. Enter filed route here before submitting Pirep.

Weather Information
Getting current METAR information for EGNM 211550Z 27008KT 9999 FEW020 12/09 Q1024
Getting current METAR information for GCFV 211530Z 07005KT 020V110 CAVOK 20/14 Q1020

Schedule Frequency

Route Map